PWSweather.com
Personal Weather Stations
Station Observations
KMNMADEL2
West Of Madelia High School, Madelia, MN 56062

West Of Madelia High SchoolMadelia, MN 56062

Lat: 44.04636, Lon: -94.4163437

Elevation: 1006

Station Type: Wireless Davis Instruments Vantage Pro2 Plus

Latest ConditionsUpdated 7:20:01 AM CDT Thursday, Jun 29, 2017
Currently Today's Max Today's Min Today's Average
Temperature 63.1°F17.3°C 68.8°F20.4°C 60.5°F15.8°C 64.0°F17.8°C
Dew Point 59.8°F15.4°C 63.8°F17.7°C 57.4°F14.1°C 60.2°F15.7°C
Winds Calm Calm 2.3 mph NW3.7 kmh NW - 0.5 mph 0.8 kmh
Wind Gusts -- 4.6 mph7.4 kmh - -
Humidity 89% 90% 83% 87%
Pressure 29.71 in1006.1 mb 29.71 in1006.1 mb 29.60 in1002.4 mb -
Hour Temp Dew Point Humidity Winds Wind Gusts Pressure Precip Precip Rate Daily Precip Total
07:20 AM 63.1°F17.3°C 59.8°F15.4°C 89% Calm Calm -- 29.71 in1006.1 mb - 0.00 in0.0 mm 0.00 in0.0 mm
07:15 AM 62.7°F17.1°C 59.7°F15.4°C 90% Calm Calm 3.5 mph5.6 kmh 29.70 in1005.8 mb - 0.00 in0.0 mm 0.00 in0.0 mm
07:10 AM 62.4°F16.9°C 59.1°F15.1°C 89% Calm Calm -- 29.70 in1005.8 mb - 0.00 in0.0 mm 0.00 in0.0 mm
07:00 AM 61.8°F16.6°C 58.9°F14.9°C 90% Calm Calm -- 29.70 in1005.8 mb - 0.00 in0.0 mm 0.00 in0.0 mm
06:55 AM 61.7°F16.5°C 58.7°F14.8°C 90% Calm Calm -- 29.69 in1005.4 mb - 0.00 in0.0 mm 0.00 in0.0 mm
06:50 AM 61.4°F16.3°C 58.4°F14.7°C 90% Calm Calm -- 29.69 in1005.4 mb - 0.00 in0.0 mm 0.00 in0.0 mm
06:45 AM 61.2°F16.2°C 58.2°F14.6°C 90% Calm Calm -- 29.68 in1005.1 mb - 0.00 in0.0 mm 0.00 in0.0 mm
06:40 AM 61.0°F16.1°C 58.1°F14.5°C 90% Calm Calm -- 29.68 in1005.1 mb - 0.00 in0.0 mm 0.00 in0.0 mm
06:35 AM 60.9°F16.1°C 57.9°F14.4°C 90% Calm Calm -- 29.68 in1005.1 mb - 0.00 in0.0 mm 0.00 in0.0 mm
06:30 AM 60.7°F15.9°C 57.8°F14.3°C 90% Calm Calm -- 29.68 in1005.1 mb - 0.00 in0.0 mm 0.00 in0.0 mm
06:25 AM 60.8°F16.0°C 57.8°F14.3°C 90% Calm Calm -- 29.69 in1005.4 mb - 0.00 in0.0 mm 0.00 in0.0 mm
06:20 AM 60.7°F15.9°C 57.8°F14.3°C 90% Calm Calm -- 29.69 in1005.4 mb - 0.00 in0.0 mm 0.00 in0.0 mm
06:15 AM 60.8°F16.0°C 57.8°F14.3°C 90% Calm Calm -- 29.69 in1005.4 mb - 0.00 in0.0 mm 0.00 in0.0 mm
06:10 AM 60.8°F16.0°C 57.8°F14.3°C 90% Calm Calm -- 29.69 in1005.4 mb - 0.00 in0.0 mm 0.00 in0.0 mm
06:00 AM 60.5°F15.8°C 57.6°F14.2°C 90% Calm Calm -- 29.70 in1005.8 mb - 0.00 in0.0 mm 0.00 in0.0 mm
05:55 AM 60.5°F15.8°C 57.6°F14.2°C 90% Calm Calm -- 29.70 in1005.8 mb - 0.00 in0.0 mm 0.00 in0.0 mm
05:50 AM 60.6°F15.9°C 57.6°F14.2°C 90% Calm Calm -- 29.69 in1005.4 mb - 0.00 in0.0 mm 0.00 in0.0 mm
05:45 AM 60.6°F15.9°C 57.7°F14.3°C 90% Calm Calm -- 29.68 in1005.1 mb - 0.00 in0.0 mm 0.00 in0.0 mm
05:40 AM 60.8°F16.0°C 57.5°F14.2°C 89% Calm Calm -- 29.68 in1005.1 mb - 0.00 in0.0 mm 0.00 in0.0 mm
05:35 AM 60.8°F16.0°C 57.6°F14.2°C 89% Calm Calm -- 29.68 in1005.1 mb - 0.00 in0.0 mm 0.00 in0.0 mm
05:30 AM 60.9°F16.1°C 57.6°F14.2°C 89% Calm Calm -- 29.68 in1005.1 mb - 0.00 in0.0 mm 0.00 in0.0 mm
05:25 AM 61.1°F16.2°C 57.8°F14.3°C 89% Calm Calm -- 29.66 in1004.4 mb - 0.00 in0.0 mm 0.00 in0.0 mm
05:20 AM 60.7°F15.9°C 57.4°F14.1°C 89% Calm Calm -- 29.66 in1004.4 mb - 0.00 in0.0 mm 0.00 in0.0 mm
05:15 AM 60.8°F16.0°C 57.5°F14.2°C 89% Calm Calm -- 29.65 in1004.1 mb - 0.00 in0.0 mm 0.00 in0.0 mm
05:10 AM 60.9°F16.1°C 57.6°F14.2°C 89% Calm Calm -- 29.64 in1003.7 mb - 0.00 in0.0 mm 0.00 in0.0 mm
05:00 AM 61.1°F16.2°C 57.8°F14.3°C 89% Calm Calm 1.2 mph1.9 kmh 29.62 in1003.0 mb - 0.00 in0.0 mm 0.00 in0.0 mm
04:55 AM 61.2°F16.2°C 57.9°F14.4°C 89% Calm Calm -- 29.63 in1003.4 mb - 0.00 in0.0 mm 0.00 in0.0 mm
04:50 AM 61.5°F16.4°C 58.2°F14.6°C 89% Calm Calm -- 29.63 in1003.4 mb - 0.00 in0.0 mm 0.00 in0.0 mm
04:45 AM 61.8°F16.6°C 58.5°F14.7°C 89% Calm Calm -- 29.64 in1003.7 mb - 0.00 in0.0 mm 0.00 in0.0 mm
04:40 AM 62.1°F16.7°C 58.8°F14.9°C 89% Calm Calm -- 29.64 in1003.7 mb - 0.00 in0.0 mm 0.00 in0.0 mm
04:35 AM 62.1°F16.7°C 58.8°F14.9°C 89% Calm Calm -- 29.64 in1003.7 mb - 0.00 in0.0 mm 0.00 in0.0 mm
04:30 AM 62.3°F16.8°C 59.0°F15.0°C 89% Calm Calm -- 29.64 in1003.7 mb - 0.00 in0.0 mm 0.00 in0.0 mm
04:25 AM 62.4°F16.9°C 59.1°F15.1°C 89% Calm Calm -- 29.64 in1003.7 mb - 0.00 in0.0 mm 0.00 in0.0 mm
04:20 AM 62.6°F17.0°C 59.3°F15.2°C 89% Calm Calm -- 29.64 in1003.7 mb - 0.00 in0.0 mm 0.00 in0.0 mm
04:15 AM 62.7°F17.1°C 59.4°F15.2°C 89% Calm Calm 1.2 mph1.9 kmh 29.64 in1003.7 mb - 0.00 in0.0 mm 0.00 in0.0 mm
04:10 AM 62.8°F17.1°C 59.2°F15.1°C 88% Calm Calm -- 29.64 in1003.7 mb - 0.00 in0.0 mm 0.00 in0.0 mm
04:00 AM 63.2°F17.3°C 59.6°F15.3°C 88% Calm Calm -- 29.65 in1004.1 mb - 0.00 in0.0 mm 0.00 in0.0 mm
03:55 AM 63.3°F17.4°C 59.7°F15.4°C 88% Calm Calm 1.2 mph1.9 kmh 29.65 in1004.1 mb - 0.00 in0.0 mm 0.00 in0.0 mm
03:50 AM 63.5°F17.5°C 59.8°F15.4°C 88% Calm Calm 3.5 mph5.6 kmh 29.64 in1003.7 mb - 0.00 in0.0 mm 0.00 in0.0 mm
03:45 AM 63.7°F17.6°C 60.1°F15.6°C 88% 1.2 mph W1.9 kmh W 3.5 mph5.6 kmh 29.65 in1004.1 mb - 0.00 in0.0 mm 0.00 in0.0 mm
03:40 AM 63.8°F17.7°C 60.2°F15.7°C 88% Calm Calm 1.2 mph1.9 kmh 29.64 in1003.7 mb - 0.00 in0.0 mm 0.00 in0.0 mm
03:35 AM 63.9°F17.7°C 60.3°F15.7°C 88% Calm Calm 1.2 mph1.9 kmh 29.64 in1003.7 mb - 0.00 in0.0 mm 0.00 in0.0 mm
03:30 AM 64.0°F17.8°C 60.4°F15.8°C 88% Calm Calm 1.2 mph1.9 kmh 29.64 in1003.7 mb - 0.00 in0.0 mm 0.00 in0.0 mm
03:25 AM 64.1°F17.8°C 60.5°F15.8°C 88% 1.2 mph WNW1.9 kmh WNW 2.3 mph3.7 kmh 29.64 in1003.7 mb - 0.00 in0.0 mm 0.00 in0.0 mm
03:20 AM 64.2°F17.9°C 60.6°F15.9°C 88% Calm Calm 3.5 mph5.6 kmh 29.64 in1003.7 mb - 0.00 in0.0 mm 0.00 in0.0 mm
03:15 AM 64.4°F18.0°C 60.7°F15.9°C 88% 2.3 mph NW3.7 kmh NW 3.5 mph5.6 kmh 29.64 in1003.7 mb - 0.00 in0.0 mm 0.00 in0.0 mm
03:10 AM 64.5°F18.1°C 60.9°F16.1°C 88% 1.2 mph WNW1.9 kmh WNW 2.3 mph3.7 kmh 29.64 in1003.7 mb - 0.00 in0.0 mm 0.00 in0.0 mm
03:00 AM 64.7°F18.2°C 60.7°F15.9°C 87% 1.2 mph NW1.9 kmh NW 3.5 mph5.6 kmh 29.64 in1003.7 mb - 0.00 in0.0 mm 0.00 in0.0 mm
02:55 AM 64.8°F18.2°C 60.9°F16.1°C 87% 1.2 mph WNW1.9 kmh WNW 2.3 mph3.7 kmh 29.64 in1003.7 mb - 0.00 in0.0 mm 0.00 in0.0 mm
02:50 AM 65.0°F18.3°C 61.0°F16.1°C 87% 1.2 mph NW1.9 kmh NW 3.5 mph5.6 kmh 29.64 in1003.7 mb - 0.00 in0.0 mm 0.00 in0.0 mm
02:45 AM 65.1°F18.4°C 61.2°F16.2°C 87% 2.3 mph NW3.7 kmh NW 3.5 mph5.6 kmh 29.63 in1003.4 mb - 0.00 in0.0 mm 0.00 in0.0 mm
02:40 AM 65.3°F18.5°C 61.3°F16.3°C 87% 2.3 mph NW3.7 kmh NW 3.5 mph5.6 kmh 29.62 in1003.0 mb - 0.00 in0.0 mm 0.00 in0.0 mm
02:35 AM 65.5°F18.6°C 61.5°F16.4°C 87% Calm Calm 2.3 mph3.7 kmh 29.62 in1003.0 mb - 0.00 in0.0 mm 0.00 in0.0 mm
02:30 AM 65.5°F18.6°C 61.6°F16.4°C 87% 2.3 mph NW3.7 kmh NW 3.5 mph5.6 kmh 29.62 in1003.0 mb - 0.00 in0.0 mm 0.00 in0.0 mm
02:25 AM 65.6°F18.7°C 61.3°F16.3°C 86% 1.2 mph NW1.9 kmh NW 3.5 mph5.6 kmh 29.62 in1003.0 mb - 0.00 in0.0 mm 0.00 in0.0 mm
02:20 AM 65.7°F18.7°C 61.4°F16.3°C 86% 1.2 mph NW1.9 kmh NW 2.3 mph3.7 kmh 29.62 in1003.0 mb - 0.00 in0.0 mm 0.00 in0.0 mm
02:15 AM 65.8°F18.8°C 61.5°F16.4°C 86% 1.2 mph W1.9 kmh W 2.3 mph3.7 kmh 29.62 in1003.0 mb - 0.00 in0.0 mm 0.00 in0.0 mm
02:10 AM 66.0°F18.9°C 61.7°F16.5°C 86% 1.2 mph WSW1.9 kmh WSW 2.3 mph3.7 kmh 29.63 in1003.4 mb - 0.00 in0.0 mm 0.00 in0.0 mm
02:00 AM 66.2°F19.0°C 61.9°F16.6°C 86% 1.2 mph WNW1.9 kmh WNW 3.5 mph5.6 kmh 29.62 in1003.0 mb - 0.00 in0.0 mm 0.00 in0.0 mm
01:55 AM 66.3°F19.1°C 62.0°F16.7°C 86% 1.2 mph NW1.9 kmh NW 2.3 mph3.7 kmh 29.62 in1003.0 mb - 0.00 in0.0 mm 0.00 in0.0 mm
01:50 AM 66.4°F19.1°C 61.8°F16.6°C 85% 1.2 mph NW1.9 kmh NW 3.5 mph5.6 kmh 29.61 in1002.7 mb - 0.00 in0.0 mm 0.00 in0.0 mm
01:45 AM 66.6°F19.2°C 61.9°F16.6°C 85% 2.3 mph WNW3.7 kmh WNW 3.5 mph5.6 kmh 29.62 in1003.0 mb - 0.00 in0.0 mm 0.00 in0.0 mm
01:40 AM 66.6°F19.2°C 62.0°F16.7°C 85% 2.3 mph NW3.7 kmh NW 4.6 mph7.4 kmh 29.62 in1003.0 mb - 0.00 in0.0 mm 0.00 in0.0 mm
01:35 AM 66.8°F19.3°C 62.1°F16.7°C 85% Calm Calm -- 29.62 in1003.0 mb - 0.00 in0.0 mm 0.00 in0.0 mm
01:30 AM 66.9°F19.4°C 62.2°F16.8°C 85% 1.2 mph WNW1.9 kmh WNW 2.3 mph3.7 kmh 29.62 in1003.0 mb - 0.00 in0.0 mm 0.00 in0.0 mm
01:25 AM 66.9°F19.4°C 62.2°F16.8°C 85% 1.2 mph WNW1.9 kmh WNW 3.5 mph5.6 kmh 29.62 in1003.0 mb - 0.00 in0.0 mm 0.00 in0.0 mm
01:20 AM 67.0°F19.4°C 62.3°F16.8°C 85% 1.2 mph WNW1.9 kmh WNW 2.3 mph3.7 kmh 29.62 in1003.0 mb - 0.00 in0.0 mm 0.00 in0.0 mm
01:15 AM 67.0°F19.4°C 62.4°F16.9°C 85% 1.2 mph WNW1.9 kmh WNW 2.3 mph3.7 kmh 29.62 in1003.0 mb - 0.00 in0.0 mm 0.00 in0.0 mm
01:10 AM 67.2°F19.6°C 62.5°F16.9°C 85% 1.2 mph W1.9 kmh W 2.3 mph3.7 kmh 29.62 in1003.0 mb - 0.00 in0.0 mm 0.00 in0.0 mm
01:00 AM 67.5°F19.7°C 62.8°F17.1°C 85% 1.2 mph W1.9 kmh W 3.5 mph5.6 kmh 29.62 in1003.0 mb - 0.00 in0.0 mm 0.00 in0.0 mm
12:55 AM 67.6°F19.8°C 63.0°F17.2°C 85% Calm Calm -- 29.62 in1003.0 mb - 0.00 in0.0 mm 0.00 in0.0 mm
12:50 AM 67.7°F19.8°C 63.0°F17.2°C 85% Calm Calm -- 29.62 in1003.0 mb - 0.00 in0.0 mm 0.00 in0.0 mm
12:45 AM 67.8°F19.9°C 62.8°F17.1°C 84% Calm Calm -- 29.61 in1002.7 mb - 0.00 in0.0 mm 0.00 in0.0 mm
12:40 AM 68.0°F20.0°C 63.0°F17.2°C 84% 1.2 mph WNW1.9 kmh WNW 2.3 mph3.7 kmh 29.61 in1002.7 mb - 0.00 in0.0 mm 0.00 in0.0 mm
12:35 AM 68.1°F20.1°C 63.1°F17.3°C 84% Calm Calm -- 29.61 in1002.7 mb - 0.00 in0.0 mm 0.00 in0.0 mm
12:30 AM 68.2°F20.1°C 63.2°F17.3°C 84% Calm Calm -- 29.61 in1002.7 mb - 0.00 in0.0 mm 0.00 in0.0 mm
12:25 AM 68.3°F20.2°C 63.3°F17.4°C 84% Calm Calm -- 29.61 in1002.7 mb - 0.00 in0.0 mm 0.00 in0.0 mm
12:20 AM 68.5°F20.3°C 63.1°F17.3°C 83% 1.2 mph WNW1.9 kmh WNW 2.3 mph3.7 kmh 29.61 in1002.7 mb - 0.00 in0.0 mm 0.00 in0.0 mm
12:15 AM 68.6°F20.3°C 63.2°F17.3°C 83% Calm Calm -- 29.61 in1002.7 mb - 0.00 in0.0 mm 0.00 in0.0 mm
12:10 AM 68.8°F20.4°C 63.4°F17.4°C 83% Calm Calm 1.2 mph1.9 kmh 29.60 in1002.4 mb - 0.00 in0.0 mm 0.00 in0.0 mm
12:00 AM 68.8°F20.4°C 63.8°F17.7°C 84% Calm Calm 2.3 mph3.7 kmh 29.61 in1002.7 mb - 0.00 in0.0 mm 0.00 in0.0 mm